createdAt,value
2023-03-05T00:01:35.975Z,38.08
2023-03-05T00:04:05.771Z,32.28
2023-03-05T00:06:35.012Z,39.67
2023-03-05T00:09:03.589Z,38.65
2023-03-05T00:11:32.930Z,35.08
2023-03-05T00:14:02.628Z,38.00
2023-03-05T00:16:30.643Z,37.00
2023-03-05T00:19:00.677Z,39.63
2023-03-05T00:21:31.667Z,38.72
2023-03-05T00:24:02.663Z,37.08
2023-03-05T00:26:31.649Z,40.65
2023-03-05T00:29:02.964Z,35.70
2023-03-05T00:34:06.947Z,43.10
2023-03-05T00:36:35.594Z,39.67
2023-03-05T00:39:03.559Z,42.00
2023-03-05T00:41:33.080Z,42.30
2023-03-05T00:44:01.323Z,45.20
2023-03-05T00:46:29.558Z,37.70
2023-03-05T00:48:58.467Z,37.97
2023-03-05T00:51:27.138Z,37.45
2023-03-05T00:53:55.746Z,41.75
2023-03-05T00:56:24.237Z,36.90
2023-03-05T00:58:52.216Z,39.22
2023-03-05T01:01:20.435Z,38.40
2023-03-05T01:03:48.364Z,41.30
2023-03-05T01:06:18.136Z,37.80
2023-03-05T01:08:46.848Z,43.35
2023-03-05T01:11:15.217Z,38.38
2023-03-05T01:13:43.305Z,39.35
2023-03-05T01:16:11.423Z,44.42
2023-03-05T01:18:40.886Z,39.13
2023-03-05T01:21:09.524Z,39.85
2023-03-05T01:23:38.496Z,40.00
2023-03-05T01:26:07.540Z,36.97
2023-03-05T01:28:35.779Z,37.13
2023-03-05T01:31:03.690Z,38.33
2023-03-05T01:33:31.648Z,38.30
2023-03-05T01:35:59.587Z,39.75
2023-03-05T01:38:30.553Z,36.78
2023-03-05T01:40:58.456Z,36.20
2023-03-05T01:43:29.173Z,38.28
2023-03-05T01:46:23.636Z,36.05
2023-03-05T01:49:23.711Z,37.13
2023-03-05T01:52:00.829Z,34.67
2023-03-05T01:54:54.298Z,37.22
2023-03-05T01:57:26.049Z,41.35
2023-03-05T02:00:00.734Z,37.50
2023-03-05T02:02:28.803Z,39.67
2023-03-05T02:05:11.239Z,43.22
2023-03-05T02:07:41.216Z,37.40
2023-03-05T02:10:23.345Z,38.85
2023-03-05T02:12:52.721Z,38.53
2023-03-05T02:15:20.749Z,37.65
2023-03-05T02:17:48.892Z,40.97
2023-03-05T02:20:29.304Z,37.35
2023-03-05T02:23:00.924Z,41.03
2023-03-05T02:25:32.070Z,37.03
2023-03-05T02:28:24.694Z,42.50
2023-03-05T02:30:52.919Z,38.80
2023-03-05T02:33:21.746Z,34.30
2023-03-05T02:35:50.370Z,35.75
2023-03-05T02:38:21.227Z,40.22
2023-03-05T02:40:49.337Z,35.00
2023-03-05T02:43:18.762Z,35.03
2023-03-05T02:45:46.788Z,36.50
2023-03-05T02:48:14.797Z,34.92
2023-03-05T02:50:44.212Z,30.45
2023-03-05T02:53:12.179Z,29.08
2023-03-05T02:55:40.804Z,25.80
2023-03-05T02:58:08.764Z,28.58
2023-03-05T03:00:36.750Z,29.33
2023-03-05T03:03:04.833Z,28.05
2023-03-05T03:05:32.773Z,26.83
2023-03-05T03:08:00.736Z,26.05
2023-03-05T03:10:28.849Z,24.95
2023-03-05T03:12:56.779Z,23.92
2023-03-05T03:15:24.829Z,25.52
2023-03-05T03:17:54.695Z,24.80
2023-03-05T03:20:22.775Z,23.73
2023-03-05T03:22:50.708Z,24.02
2023-03-05T03:25:21.165Z,23.10
2023-03-05T03:27:53.574Z,20.83
2023-03-05T03:30:24.708Z,23.52
2023-03-05T03:32:53.836Z,23.30
2023-03-05T03:35:21.795Z,25.48
2023-03-05T03:37:50.812Z,26.10
2023-03-05T03:40:19.165Z,24.83
2023-03-05T03:42:47.139Z,23.33
2023-03-05T03:45:15.341Z,27.50
2023-03-05T03:47:43.255Z,28.75
2023-03-05T03:50:12.705Z,28.15
2023-03-05T03:52:40.621Z,31.90
2023-03-05T03:55:08.944Z,27.92
2023-03-05T03:57:38.127Z,31.15
2023-03-05T04:00:08.077Z,29.23
2023-03-05T04:02:40.105Z,29.80
2023-03-05T04:05:08.717Z,32.10
2023-03-05T04:07:36.724Z,27.65
2023-03-05T04:10:05.292Z,34.22
2023-03-05T04:12:33.184Z,33.50
2023-03-05T04:15:01.192Z,31.17
2023-03-05T04:17:29.096Z,36.80
2023-03-05T04:19:56.984Z,32.95
2023-03-05T04:22:24.913Z,33.60
2023-03-05T04:24:52.900Z,33.58
2023-03-05T04:27:20.798Z,38.30
2023-03-05T04:29:48.685Z,35.15
2023-03-05T04:32:24.021Z,33.83
2023-03-05T04:34:52.149Z,33.92
2023-03-05T04:37:20.033Z,40.88
2023-03-05T04:39:47.940Z,35.65
2023-03-05T04:42:16.046Z,40.83
2023-03-05T04:44:44.157Z,43.13
2023-03-05T04:47:12.165Z,40.20
2023-03-05T04:49:40.080Z,39.58
2023-03-05T04:52:08.117Z,40.72
2023-03-05T04:54:36.068Z,38.92
2023-03-05T04:57:04.381Z,38.35
2023-03-05T04:59:32.392Z,42.38
2023-03-05T05:02:00.528Z,39.53
2023-03-05T05:04:28.523Z,38.35
2023-03-05T05:06:57.912Z,43.72
2023-03-05T05:09:26.721Z,43.20
2023-03-05T05:11:57.642Z,43.03
2023-03-05T05:14:25.563Z,44.17
2023-03-05T05:16:54.892Z,45.88
2023-03-05T05:19:25.529Z,44.78
2023-03-05T05:21:53.485Z,44.45
2023-03-05T05:24:21.388Z,43.15
2023-03-05T05:26:49.581Z,43.35
2023-03-05T05:29:17.527Z,43.78
2023-03-05T05:31:46.050Z,45.22
2023-03-05T05:34:14.073Z,43.65
2023-03-05T05:36:42.031Z,47.45
2023-03-05T05:39:10.145Z,39.30
2023-03-05T05:41:38.039Z,47.63
2023-03-05T05:44:06.063Z,41.13
2023-03-05T05:46:34.217Z,40.00
2023-03-05T05:49:02.313Z,44.05
2023-03-05T05:51:30.287Z,45.08
2023-03-05T05:53:58.380Z,47.30
2023-03-05T05:56:26.632Z,45.42
2023-03-05T05:58:55.389Z,46.35
2023-03-05T06:01:33.736Z,49.92
2023-03-05T06:04:02.285Z,44.22
2023-03-05T06:06:30.441Z,45.90
2023-03-05T06:08:58.593Z,44.47
2023-03-05T06:11:26.508Z,43.35
2023-03-05T06:13:54.506Z,42.80
2023-03-05T06:16:25.128Z,43.50
2023-03-05T06:18:53.762Z,46.90
2023-03-05T06:21:23.223Z,42.60
2023-03-05T06:23:52.124Z,48.20
2023-03-05T06:26:23.028Z,50.33
2023-03-05T06:28:50.961Z,43.33
2023-03-05T06:31:26.676Z,43.15
2023-03-05T06:34:02.339Z,45.72
2023-03-05T06:36:33.694Z,48.42
2023-03-05T06:41:32.030Z,51.80
2023-03-05T06:44:04.267Z,43.92
2023-03-05T06:46:35.406Z,46.15
2023-03-05T06:49:05.090Z,47.22
2023-03-05T06:51:35.930Z,43.20
2023-03-05T06:54:09.997Z,47.25
2023-03-05T06:56:39.541Z,45.47
2023-03-05T06:59:08.267Z,48.65
2023-03-05T07:01:36.567Z,45.22
2023-03-05T07:04:05.458Z,46.90
2023-03-05T07:06:35.569Z,48.88
2023-03-05T07:09:05.055Z,45.60
2023-03-05T07:11:33.936Z,46.72
2023-03-05T07:14:03.000Z,49.30
2023-03-05T07:16:34.545Z,40.78
2023-03-05T07:19:04.974Z,44.05
2023-03-05T07:21:36.888Z,42.93
2023-03-05T07:24:07.245Z,42.03
2023-03-05T07:26:35.526Z,41.40
2023-03-05T07:29:04.033Z,38.03
2023-03-05T07:31:33.064Z,36.88
2023-03-05T07:34:07.701Z,43.72
2023-03-05T07:36:39.327Z,41.30
2023-03-05T07:39:07.891Z,40.33
2023-03-05T07:41:35.977Z,36.72
2023-03-05T07:44:04.319Z,35.08
2023-03-05T07:46:34.942Z,35.20
2023-03-05T07:49:03.285Z,35.63
2023-03-05T07:51:31.626Z,34.03
2023-03-05T07:54:00.673Z,36.42
2023-03-05T07:56:36.542Z,35.97
2023-03-05T07:59:07.046Z,31.58
2023-03-05T08:01:36.344Z,26.50
2023-03-05T08:04:06.428Z,26.85
2023-03-05T08:06:34.681Z,21.33
2023-03-05T08:09:02.608Z,22.08
2023-03-05T08:11:30.647Z,21.45
2023-03-05T08:14:00.445Z,19.20
2023-03-05T08:16:28.744Z,20.73
2023-03-05T08:19:07.663Z,21.90
2023-03-05T08:21:38.241Z,23.33
2023-03-05T08:24:11.666Z,15.68
2023-03-05T08:26:44.509Z,13.43
2023-03-05T08:29:18.655Z,13.93
2023-03-05T08:31:48.277Z,17.65
2023-03-05T08:34:16.771Z,16.40
2023-03-05T08:36:44.802Z,16.52
2023-03-05T08:39:13.002Z,21.33
2023-03-05T08:41:50.079Z,16.70
2023-03-05T08:44:18.088Z,18.45
2023-03-05T08:46:46.039Z,16.17
2023-03-05T08:49:17.743Z,15.60
2023-03-05T08:51:45.800Z,15.93
2023-03-05T08:54:16.508Z,14.32
2023-03-05T08:56:44.404Z,13.73
2023-03-05T08:59:13.689Z,14.23
2023-03-05T09:01:41.934Z,11.88
2023-03-05T09:04:10.944Z,14.45
2023-03-05T09:06:41.587Z,14.15
2023-03-05T09:09:12.089Z,14.10
2023-03-05T09:11:40.098Z,11.43
2023-03-05T09:14:09.476Z,13.63
2023-03-05T09:16:41.550Z,11.05
2023-03-05T09:19:11.583Z,12.02
2023-03-05T09:21:39.775Z,11.75
2023-03-05T09:24:08.011Z,16.75
2023-03-05T09:26:35.983Z,13.57
2023-03-05T09:29:04.664Z,12.98
2023-03-05T09:31:32.751Z,13.00
2023-03-05T09:34:00.764Z,14.60
2023-03-05T09:36:31.536Z,7.78
2023-03-05T09:39:02.959Z,7.72
2023-03-05T09:44:46.744Z,6.03
2023-03-05T09:47:21.037Z,6.40
2023-03-05T09:50:03.710Z,5.70
2023-03-05T09:52:49.038Z,6.53
2023-03-05T09:55:27.152Z,4.78
2023-03-05T09:57:59.614Z,9.18
2023-03-05T10:00:42.413Z,7.60
2023-03-05T10:03:31.325Z,5.15
2023-03-05T10:06:37.911Z,5.50
2023-03-05T10:09:11.801Z,4.55
2023-03-05T10:11:58.635Z,9.95
2023-03-05T10:14:32.537Z,5.80
2023-03-05T10:17:09.629Z,5.93
2023-03-05T10:20:05.499Z,5.18
2023-03-05T10:23:05.343Z,9.80
2023-03-05T10:25:50.985Z,19.15
2023-03-05T10:28:34.289Z,6.50
2023-03-05T10:31:42.535Z,6.32
2023-03-05T10:34:55.108Z,7.22
2023-03-05T10:37:41.728Z,5.32
2023-03-05T10:40:34.571Z,5.15
2023-03-05T10:43:27.197Z,4.03
2023-03-05T10:45:56.384Z,5.50
2023-03-05T10:48:36.481Z,3.88
2023-03-05T10:51:14.870Z,5.50
2023-03-05T10:53:59.250Z,6.82
2023-03-05T10:56:29.775Z,6.35
2023-03-05T10:58:57.691Z,3.67
2023-03-05T11:01:29.722Z,6.53
2023-03-05T11:04:09.509Z,6.03
2023-03-05T11:06:48.749Z,7.45
2023-03-05T11:09:18.591Z,6.22
2023-03-05T11:12:02.528Z,5.18
2023-03-05T11:14:35.805Z,7.00
2023-03-05T11:17:26.536Z,6.22
2023-03-05T11:19:54.489Z,3.87
2023-03-05T11:22:24.816Z,4.20
2023-03-05T11:25:19.395Z,5.60
2023-03-05T11:27:54.718Z,6.50
2023-03-05T11:30:32.255Z,4.20
2023-03-05T11:33:12.191Z,3.58
2023-03-05T11:35:43.258Z,4.03
2023-03-05T11:38:17.234Z,6.35
2023-03-05T11:40:45.252Z,5.55
2023-03-05T11:43:19.301Z,4.57
2023-03-05T11:45:51.078Z,4.35
2023-03-05T11:48:40.682Z,6.32
2023-03-05T11:51:31.903Z,5.43
2023-03-05T11:54:08.316Z,2.83
2023-03-05T11:56:38.908Z,2.63
2023-03-05T11:59:21.633Z,5.73
2023-03-05T12:01:53.396Z,2.90
2023-03-05T12:04:22.236Z,3.33
2023-03-05T12:07:05.427Z,2.72
2023-03-05T12:09:54.188Z,3.78
2023-03-05T12:12:42.181Z,3.97
2023-03-05T12:15:18.966Z,4.68
2023-03-05T12:18:04.579Z,4.00
2023-03-05T12:21:05.303Z,4.18
2023-03-05T12:23:51.625Z,3.95
2023-03-05T12:26:20.155Z,2.25
2023-03-05T12:28:50.595Z,2.53
2023-03-05T12:31:39.519Z,2.85
2023-03-05T12:34:35.563Z,3.47
2023-03-05T12:37:04.813Z,6.38
2023-03-05T12:39:41.776Z,2.90
2023-03-05T12:42:31.493Z,5.38
2023-03-05T12:45:15.508Z,3.90
2023-03-05T12:47:58.383Z,2.45
2023-03-05T12:50:29.131Z,4.38
2023-03-05T12:53:19.408Z,3.22
2023-03-05T12:56:00.233Z,5.20
2023-03-05T12:58:43.647Z,4.30
2023-03-05T13:01:37.205Z,5.47
2023-03-05T13:04:12.145Z,4.85
2023-03-05T13:06:40.700Z,3.78
2023-03-05T13:09:18.598Z,5.25
2023-03-05T13:11:50.529Z,4.20
2023-03-05T13:14:30.152Z,6.10
2023-03-05T13:16:58.416Z,3.33
2023-03-05T13:19:26.551Z,3.30
2023-03-05T13:22:20.247Z,6.25
2023-03-05T13:24:48.415Z,4.22
2023-03-05T13:27:33.811Z,3.85
2023-03-05T13:30:01.798Z,3.55
2023-03-05T13:32:33.380Z,4.60
2023-03-05T13:35:02.279Z,4.53
2023-03-05T13:37:34.122Z,3.08
2023-03-05T13:40:30.423Z,3.17
2023-03-05T13:43:13.329Z,3.90
2023-03-05T13:45:41.296Z,4.28
2023-03-05T13:48:19.008Z,4.07
2023-03-05T13:50:59.432Z,4.17
2023-03-05T13:53:32.145Z,4.03
2023-03-05T13:56:03.248Z,5.45
2023-03-05T13:58:56.408Z,3.55
2023-03-05T14:01:29.426Z,4.15
2023-03-05T14:04:04.719Z,9.30
2023-03-05T14:06:34.663Z,7.47
2023-03-05T14:09:29.924Z,3.83
2023-03-05T14:12:06.638Z,5.05
2023-03-05T14:14:39.154Z,5.38
2023-03-05T14:17:39.008Z,6.07
2023-03-05T14:20:12.617Z,5.65
2023-03-05T14:22:43.135Z,4.07
2023-03-05T14:25:40.622Z,6.50
2023-03-05T14:28:19.099Z,5.47
2023-03-05T14:30:48.573Z,5.78
2023-03-05T14:33:24.280Z,4.35
2023-03-05T14:35:52.588Z,7.35
2023-03-05T14:38:26.903Z,6.32
2023-03-05T14:40:55.503Z,4.20
2023-03-05T14:43:23.544Z,5.40
2023-03-05T14:45:51.478Z,7.40
2023-03-05T14:48:22.385Z,5.95
2023-03-05T14:50:56.774Z,7.63
2023-03-05T14:53:46.360Z,5.78
2023-03-05T14:56:27.892Z,7.55
2023-03-05T14:58:58.673Z,6.70
2023-03-05T15:01:27.083Z,7.15
2023-03-05T15:03:55.105Z,6.07
2023-03-05T15:06:34.628Z,5.53
2023-03-05T15:09:05.039Z,8.50
2023-03-05T15:11:33.068Z,9.02
2023-03-05T15:14:00.993Z,6.82
2023-03-05T15:16:29.459Z,7.07
2023-03-05T15:18:58.409Z,6.57
2023-03-05T15:21:26.368Z,9.73
2023-03-05T15:23:54.430Z,6.15
2023-03-05T15:26:22.862Z,5.82
2023-03-05T15:28:51.031Z,8.07
2023-03-05T15:31:19.602Z,5.45
2023-03-05T15:33:47.651Z,6.32
2023-03-05T15:36:15.561Z,9.10
2023-03-05T15:38:44.252Z,6.93
2023-03-05T15:41:12.446Z,9.48
2023-03-05T15:43:40.411Z,9.10
2023-03-05T15:46:08.585Z,9.00
2023-03-05T15:48:36.846Z,6.65
2023-03-05T15:51:08.418Z,7.30
2023-03-05T15:53:36.621Z,11.65
2023-03-05T15:56:07.672Z,9.13
2023-03-05T15:58:35.883Z,8.25
2023-03-05T16:01:03.880Z,7.43
2023-03-05T16:03:31.956Z,6.40
2023-03-05T16:05:59.876Z,7.28
2023-03-05T16:08:28.033Z,8.13
2023-03-05T16:10:55.944Z,8.57
2023-03-05T16:13:24.092Z,7.88
2023-03-05T16:15:54.203Z,11.38
2023-03-05T16:18:26.981Z,10.98
2023-03-05T16:20:58.632Z,10.45
2023-03-05T16:23:26.554Z,10.77
2023-03-05T16:25:54.572Z,9.30
2023-03-05T16:28:23.061Z,10.43
2023-03-05T16:30:56.784Z,13.70
2023-03-05T16:33:25.791Z,10.98
2023-03-05T16:36:22.302Z,12.60
2023-03-05T16:38:51.322Z,9.88
2023-03-05T16:41:23.248Z,8.10
2023-03-05T16:43:54.593Z,10.30
2023-03-05T16:46:22.773Z,8.35
2023-03-05T16:48:51.123Z,8.23
2023-03-05T16:51:20.806Z,11.75
2023-03-05T16:53:48.849Z,11.43
2023-03-05T16:56:18.629Z,12.10
2023-03-05T16:58:46.596Z,9.63
2023-03-05T17:01:21.116Z,8.70
2023-03-05T17:03:49.517Z,12.02
2023-03-05T17:06:25.758Z,12.30
2023-03-05T17:08:54.493Z,13.60
2023-03-05T17:11:22.844Z,11.23
2023-03-05T17:13:50.769Z,12.48
2023-03-05T17:16:20.943Z,17.35
2023-03-05T17:18:49.981Z,11.38
2023-03-05T17:21:18.393Z,11.15
2023-03-05T17:23:46.338Z,12.40
2023-03-05T17:26:16.879Z,12.15
2023-03-05T17:28:45.598Z,9.80
2023-03-05T17:31:14.625Z,10.02
2023-03-05T17:33:43.307Z,10.27
2023-03-05T17:36:17.347Z,11.07
2023-03-05T17:38:46.242Z,9.88
2023-03-05T17:41:14.502Z,11.25
2023-03-05T17:43:42.503Z,10.98
2023-03-05T17:46:10.902Z,9.48
2023-03-05T17:48:40.244Z,11.02
2023-03-05T17:51:10.631Z,11.85
2023-03-05T17:53:40.519Z,13.07
2023-03-05T17:56:10.472Z,13.57
2023-03-05T17:58:38.813Z,12.70
2023-03-05T18:01:08.054Z,12.88
2023-03-05T18:03:36.918Z,10.48
2023-03-05T18:06:08.475Z,10.25
2023-03-05T18:08:38.757Z,12.75
2023-03-05T18:11:06.900Z,10.80
2023-03-05T18:13:35.386Z,8.93
2023-03-05T18:16:07.137Z,13.63
2023-03-05T18:18:35.318Z,10.00
2023-03-05T18:21:03.468Z,9.85
2023-03-05T18:23:31.355Z,12.20
2023-03-05T18:25:59.266Z,11.73
2023-03-05T18:28:27.826Z,11.90
2023-03-05T18:30:55.833Z,13.48
2023-03-05T18:33:25.808Z,12.40
2023-03-05T18:35:54.735Z,13.32
2023-03-05T18:38:25.199Z,11.23
2023-03-05T18:40:54.427Z,11.85
2023-03-05T18:43:23.446Z,11.38
2023-03-05T18:45:54.045Z,11.85
2023-03-05T18:48:22.997Z,12.07
2023-03-05T18:50:54.881Z,11.75
2023-03-05T18:53:23.741Z,12.20
2023-03-05T18:55:53.530Z,13.73
2023-03-05T18:58:21.699Z,19.88
2023-03-05T19:00:50.301Z,16.73
2023-03-05T19:03:21.811Z,14.20
2023-03-05T19:05:52.202Z,15.05
2023-03-05T19:08:21.097Z,11.80
2023-03-05T19:10:49.214Z,13.00
2023-03-05T19:13:44.952Z,14.88
2023-03-05T19:16:15.937Z,12.93
2023-03-05T19:19:12.665Z,15.00
2023-03-05T19:21:41.905Z,15.55
2023-03-05T19:24:09.950Z,14.95
2023-03-05T19:26:38.238Z,12.27
2023-03-05T19:29:09.637Z,12.57
2023-03-05T19:31:38.654Z,13.05
2023-03-05T19:34:07.086Z,15.75
2023-03-05T19:36:36.950Z,14.00
2023-03-05T19:39:08.792Z,13.25
2023-03-05T19:41:37.416Z,14.45
2023-03-05T19:44:13.830Z,16.77
2023-03-05T19:46:45.881Z,13.93
2023-03-05T19:49:14.209Z,16.58
2023-03-05T19:51:43.728Z,15.15
2023-03-05T19:54:16.831Z,17.33
2023-03-05T19:56:48.166Z,16.90
2023-03-05T20:01:47.132Z,17.40
2023-03-05T20:04:19.145Z,20.85
2023-03-05T20:06:47.623Z,18.70
2023-03-05T20:09:16.560Z,16.80
2023-03-05T20:11:45.030Z,19.35
2023-03-05T20:14:15.577Z,19.23
2023-03-05T20:16:44.417Z,18.05
2023-03-05T20:19:18.112Z,20.27
2023-03-05T20:21:46.882Z,17.45
2023-03-05T20:24:17.524Z,19.80
2023-03-05T20:26:47.574Z,22.25
2023-03-05T20:29:18.163Z,16.98
2023-03-05T20:31:47.570Z,19.33
2023-03-05T20:34:18.834Z,18.42
2023-03-05T20:36:47.736Z,21.75
2023-03-05T20:39:15.991Z,16.13
2023-03-05T20:41:48.090Z,18.45
2023-03-05T20:44:19.156Z,15.35
2023-03-05T20:47:00.585Z,16.30
2023-03-05T20:49:29.476Z,16.50
2023-03-05T20:51:57.419Z,16.50
2023-03-05T20:54:28.356Z,19.92
2023-03-05T20:56:56.394Z,18.42
2023-03-05T20:59:25.849Z,16.40
2023-03-05T21:01:53.828Z,22.73
2023-03-05T21:04:21.824Z,18.33
2023-03-05T21:06:53.889Z,18.35
2023-03-05T21:09:21.911Z,16.77
2023-03-05T21:11:49.929Z,16.58
2023-03-05T21:14:17.901Z,17.45
2023-03-05T21:16:45.877Z,21.88
2023-03-05T21:19:13.841Z,16.65
2023-03-05T21:21:45.835Z,14.65
2023-03-05T21:24:14.385Z,15.18
2023-03-05T21:26:42.340Z,18.55
2023-03-05T21:29:10.320Z,20.75
2023-03-05T21:31:38.590Z,17.83
2023-03-05T21:34:06.567Z,16.65
2023-03-05T21:36:34.474Z,16.13
2023-03-05T21:39:02.792Z,18.20
2023-03-05T21:41:30.905Z,14.35
2023-03-05T21:44:00.382Z,15.10
2023-03-05T21:46:28.364Z,18.05
2023-03-05T21:48:56.350Z,16.15
2023-03-05T21:51:29.482Z,18.13
2023-03-05T21:53:57.417Z,18.65
2023-03-05T21:56:26.972Z,18.13
2023-03-05T21:58:58.294Z,19.35
2023-03-05T22:01:26.505Z,19.73
2023-03-05T22:03:58.937Z,15.13
2023-03-05T22:06:27.077Z,18.20
2023-03-05T22:08:55.955Z,17.42
2023-03-05T22:11:24.749Z,17.42
2023-03-05T22:13:52.729Z,16.67
2023-03-05T22:16:25.757Z,19.00
2023-03-05T22:18:54.496Z,17.23
2023-03-05T22:21:26.869Z,18.85
2023-03-05T22:23:58.069Z,19.85
2023-03-05T22:26:27.917Z,16.35
2023-03-05T22:28:55.826Z,18.85
2023-03-05T22:31:25.232Z,18.30
2023-03-05T22:33:53.569Z,20.95
2023-03-05T22:36:21.772Z,21.02
2023-03-05T22:38:49.748Z,18.25
2023-03-05T22:41:20.847Z,14.95
2023-03-05T22:43:50.152Z,17.50
2023-03-05T22:46:24.434Z,17.45
2023-03-05T22:48:53.547Z,16.80
2023-03-05T22:51:21.909Z,18.15
2023-03-05T22:53:49.988Z,18.15
2023-03-05T22:56:20.840Z,17.45
2023-03-05T22:58:49.252Z,15.23
2023-03-05T23:01:22.480Z,20.23
2023-03-05T23:03:55.929Z,18.67
2023-03-05T23:06:28.144Z,18.80
2023-03-05T23:08:56.371Z,20.40
2023-03-05T23:11:24.334Z,21.20
2023-03-05T23:13:52.382Z,17.25
2023-03-05T23:16:20.303Z,17.35
2023-03-05T23:18:48.300Z,17.58
2023-03-05T23:21:16.310Z,16.08
2023-03-05T23:23:44.341Z,18.13
2023-03-05T23:26:12.387Z,16.30
2023-03-05T23:28:40.569Z,16.58
2023-03-05T23:31:08.572Z,18.50
2023-03-05T23:33:36.458Z,19.60
2023-03-05T23:36:04.597Z,17.67
2023-03-05T23:38:32.571Z,22.80
2023-03-05T23:41:04.746Z,23.05
2023-03-05T23:43:32.674Z,24.38
2023-03-05T23:46:02.646Z,25.98
2023-03-05T23:48:31.801Z,23.52
2023-03-05T23:50:59.958Z,20.88
2023-03-05T23:53:30.497Z,24.10
2023-03-05T23:55:58.895Z,23.25
2023-03-05T23:58:26.952Z,18.23
